Time;durP1;ratioP1;P1;durP2;ratioP2;P2;SDS_P1;SDS_P2;PMS_P1;PMS_P2;Temp;Humidity;BMP_temperature;BMP_pressure;BME280_temperature;BME280_humidity;BME280_pressure;Samples;Min_cycle;Max_cycle;Signal;HPM_P1;HPM_P2
2023/06/23 00:02:47;;;;;;;6.03;5.38;;;26.20;93.40;;;;;;6207173;28;89982;-68
2023/06/23 00:05:49;;;;;;;5.93;5.43;;;26.20;93.30;;;;;;6205489;28;89091;-68
2023/06/23 00:08:52;;;;;;;6.82;5.68;;;26.20;93.30;;;;;;6194183;28;88957;-68
2023/06/23 00:11:54;;;;;;;6.90;5.80;;;26.20;93.30;;;;;;6207201;28;88109;-68
2023/06/23 00:14:56;;;;;;;6.00;5.35;;;26.20;93.30;;;;;;6207372;28;89110;-67
2023/06/23 00:17:59;;;;;;;5.63;5.13;;;26.20;93.30;;;;;;6198924;28;89242;-67
2023/06/23 00:21:03;;;;;;;5.97;5.35;;;26.20;93.30;;;;;;6199962;28;88976;-68
2023/06/23 00:24:06;;;;;;;5.50;5.00;;;26.20;93.20;;;;;;6193394;28;88334;-68
2023/06/23 00:27:08;;;;;;;5.82;5.30;;;26.20;93.20;;;;;;6203048;28;89135;-68
2023/06/23 00:30:11;;;;;;;5.70;5.10;;;26.20;93.30;;;;;;6206784;28;89051;-68
2023/06/23 00:33:14;;;;;;;5.22;4.72;;;26.20;93.10;;;;;;6204903;28;89921;-67
2023/06/23 00:40:03;;;;;;;5.20;4.70;;;26.20;93.20;;;;;;6153769;28;87744;-68
2023/06/23 00:43:13;;;;;;;6.18;5.47;;;26.20;93.20;;;;;;6150208;28;89630;-68
2023/06/23 00:46:24;;;;;;;6.55;5.10;;;26.30;93.30;;;;;;6138262;28;87179;-68
2023/06/23 00:49:41;;;;;;;5.90;5.22;;;26.20;93.20;;;;;;6155693;28;88162;-68
2023/06/23 00:52:54;;;;;;;5.45;4.80;;;26.20;93.20;;;;;;6161849;28;88384;-68
2023/06/23 00:56:24;;;;;;;5.93;4.90;;;26.20;93.20;;;;;;6155313;28;86256;-68
2023/06/23 00:59:40;;;;;;;5.38;4.80;;;26.20;93.20;;;;;;6153879;28;88115;-68
2023/06/23 01:02:54;;;;;;;5.40;4.90;;;26.20;93.20;;;;;;6148812;28;88239;-67
2023/06/23 01:06:11;;;;;;;5.80;5.20;;;26.20;93.20;;;;;;6149286;28;90183;-67
2023/06/23 01:09:29;;;;;;;5.75;5.15;;;26.20;93.20;;;;;;6135771;28;87832;-68
2023/06/23 01:16:37;;;;;;;6.82;5.25;;;26.20;93.20;;;;;;6193638;28;87708;-68
2023/06/23 01:20:15;;;;;;;5.32;4.82;;;26.20;93.10;;;;;;6195687;28;88403;-68
2023/06/23 01:23:58;;;;;;;5.47;4.78;;;26.20;93.10;;;;;;6203873;28;88257;-68
2023/06/23 01:30:54;;;;;;;4.95;4.45;;;26.20;93.00;;;;;;6197080;28;86290;-68
2023/06/23 01:34:13;;;;;;;5.45;4.90;;;26.20;93.10;;;;;;6206125;28;87985;-68
2023/06/23 01:37:32;;;;;;;5.57;4.95;;;26.20;93.10;;;;;;6193058;28;88049;-67
2023/06/23 01:40:44;;;;;;;5.40;4.90;;;26.20;93.10;;;;;;6203678;28;90406;-68
2023/06/23 01:44:07;;;;;;;5.20;4.70;;;26.20;93.10;;;;;;6184724;28;88203;-68
2023/06/23 01:47:32;;;;;;;5.10;4.47;;;26.20;93.10;;;;;;6194303;28;88550;-68
2023/06/23 01:50:39;;;;;;;5.25;4.75;;;26.20;93.10;;;;;;6192127;28;87829;-68
2023/06/23 01:53:51;;;;;;;5.53;4.70;;;26.20;93.10;;;;;;6203507;28;89944;-68
2023/06/23 01:57:07;;;;;;;5.22;4.72;;;26.20;93.10;;;;;;6197927;28;88036;-68
2023/06/23 02:00:17;;;;;;;5.18;4.68;;;26.20;93.10;;;;;;6202840;28;88024;-68
2023/06/23 02:03:52;;;;;;;5.57;4.60;;;26.20;93.10;;;;;;6197287;28;87190;-68
2023/06/23 02:07:12;;;;;;;5.05;4.55;;;26.20;93.10;;;;;;6200999;28;88509;-68
2023/06/23 02:10:27;;;;;;;5.15;4.53;;;26.20;93.10;;;;;;6196220;28;87872;-69
2023/06/23 02:13:40;;;;;;;4.95;4.43;;;26.20;93.10;;;;;;6203790;28;88997;-69
2023/06/23 02:17:00;;;;;;;4.90;4.40;;;26.20;93.00;;;;;;6196436;28;88086;-68
2023/06/23 02:20:14;;;;;;;4.97;4.28;;;26.20;93.00;;;;;;6202793;28;88220;-69
2023/06/23 02:23:21;;;;;;;5.03;4.53;;;26.20;93.00;;;;;;6201420;28;88130;-68
2023/06/23 02:26:44;;;;;;;4.90;4.50;;;26.20;93.00;;;;;;6188142;28;87028;-68
2023/06/23 02:30:13;;;;;;;5.20;4.70;;;26.20;93.00;;;;;;6187464;28;88349;-68
2023/06/23 02:33:27;;;;;;;5.05;4.55;;;26.20;93.00;;;;;;6167724;28;88170;-69
2023/06/23 02:36:51;;;;;;;5.10;4.60;;;26.20;93.00;;;;;;6201175;28;87432;-68
2023/06/23 02:40:09;;;;;;;4.97;4.50;;;26.20;93.00;;;;;;6192014;28;88064;-68
2023/06/23 02:43:30;;;;;;;4.88;4.47;;;26.20;93.00;;;;;;6194659;28;88121;-68
2023/06/23 02:46:54;;;;;;;5.35;4.50;;;26.30;93.10;;;;;;6202606;28;88290;-69
2023/06/23 02:50:06;;;;;;;5.03;4.53;;;26.20;93.00;;;;;;6163340;28;87041;-69
2023/06/23 02:53:31;;;;;;;5.90;4.70;;;26.20;93.00;;;;;;6185149;28;88008;-68
2023/06/23 02:56:43;;;;;;;5.35;4.63;;;26.20;93.10;;;;;;6192057;28;88129;-68
2023/06/23 02:59:55;;;;;;;5.13;4.63;;;26.20;93.10;;;;;;6193848;28;88402;-68
2023/06/23 03:03:08;;;;;;;5.47;4.75;;;26.20;93.10;;;;;;6193035;28;88105;-69
2023/06/23 03:06:34;;;;;;;5.45;4.70;;;26.20;93.00;;;;;;6193899;28;87544;-68
2023/06/23 03:09:46;;;;;;;4.93;4.43;;;26.20;93.00;;;;;;6194041;28;87285;-69
2023/06/23 03:12:55;;;;;;;6.10;4.43;;;26.20;92.90;;;;;;6189981;28;88421;-69
2023/06/23 03:16:15;;;;;;;4.50;4.10;;;26.20;92.90;;;;;;6205529;28;88597;-68
2023/06/23 03:19:35;;;;;;;5.93;4.38;;;26.20;92.90;;;;;;6201012;28;88920;-69
2023/06/23 03:22:58;;;;;;;4.97;4.57;;;26.30;93.00;;;;;;6207385;28;87722;-69
2023/06/23 03:26:10;;;;;;;5.00;4.50;;;26.30;93.00;;;;;;6196133;28;87552;-68
2023/06/23 03:29:25;;;;;;;4.75;4.32;;;26.30;93.00;;;;;;6197390;28;87955;-69
2023/06/23 03:32:44;;;;;;;5.05;4.55;;;26.20;93.00;;;;;;6207268;28;88112;-69
2023/06/23 03:36:15;;;;;;;5.32;4.80;;;26.30;93.00;;;;;;6185606;28;87480;-69
2023/06/23 03:39:28;;;;;;;5.72;4.80;;;26.20;93.00;;;;;;6195960;28;88336;-69
2023/06/23 03:46:11;;;;;;;5.53;4.97;;;26.20;93.00;;;;;;6175882;28;88673;-69
2023/06/23 03:49:22;;;;;;;6.00;5.22;;;26.20;93.00;;;;;;6206526;28;88009;-68
2023/06/23 03:52:46;;;;;;;5.35;4.85;;;26.20;93.00;;;;;;6207597;28;89276;-68
2023/06/23 03:55:55;;;;;;;5.10;4.60;;;26.20;93.00;;;;;;6193937;28;87996;-69
2023/06/23 03:59:20;;;;;;;5.03;4.53;;;26.20;93.00;;;;;;6201287;28;88030;-68
2023/06/23 04:02:57;;;;;;;5.68;5.07;;;26.20;92.90;;;;;;6171911;28;88328;-68
2023/06/23 04:06:37;;;;;;;5.55;5.05;;;26.20;92.90;;;;;;6176933;28;88057;-69
2023/06/23 04:09:59;;;;;;;5.93;5.32;;;26.20;92.90;;;;;;6154137;28;88156;-69
2023/06/23 04:13:19;;;;;;;5.28;4.85;;;26.20;92.90;;;;;;6143563;28;88990;-68
2023/06/23 04:16:29;;;;;;;5.55;5.05;;;26.30;93.00;;;;;;6134434;28;86489;-68
2023/06/23 04:19:42;;;;;;;5.53;5.03;;;26.20;93.00;;;;;;6103914;28;87758;-69
2023/06/23 04:23:03;;;;;;;5.70;5.20;;;26.20;93.00;;;;;;6118115;28;88083;-68
2023/06/23 04:26:31;;;;;;;5.60;5.10;;;26.30;93.40;;;;;;6164566;28;89916;-68
2023/06/23 04:37:43;;;;;;;5.80;5.30;;;26.30;93.00;;;;;;6245775;27;80164;-70
2023/06/23 04:41:15;;;;;;;6.20;5.60;;;26.20;93.00;;;;;;6232018;27;80299;-70
2023/06/23 04:44:35;;;;;;;6.25;5.65;;;26.20;93.00;;;;;;6220709;28;81468;-70
2023/06/23 04:48:07;;;;;;;5.85;5.35;;;26.20;93.00;;;;;;6178632;28;81290;-70
2023/06/23 04:55:11;;;;;;;6.13;5.45;;;26.20;93.00;;;;;;6234375;28;80865;-71
2023/06/23 04:58:35;;;;;;;6.20;5.60;;;26.20;93.00;;;;;;6247147;28;81087;-71
2023/06/23 05:01:57;;;;;;;6.30;5.70;;;26.20;93.00;;;;;;6239757;28;81216;-70
2023/06/23 05:05:16;;;;;;;6.50;5.90;;;26.20;93.00;;;;;;6227973;28;80930;-70
2023/06/23 05:16:14;;;;;;;6.25;5.65;;;26.20;93.00;;;;;;6228797;27;81086;-70
2023/06/23 05:19:55;;;;;;;6.43;5.82;;;26.20;93.00;;;;;;6247181;27;80737;-70
2023/06/23 05:27:02;;;;;;;6.55;5.93;;;26.30;93.10;;;;;;6229546;28;80266;-70
2023/06/23 05:51:28;;;;;;;7.25;6.55;;;26.30;93.20;;;;;;6204498;28;80968;-70
2023/06/23 05:58:46;;;;;;;7.53;6.80;;;26.20;93.10;;;;;;6184047;28;82192;-70
2023/06/23 06:06:16;;;;;;;7.63;6.78;;;26.30;93.10;;;;;;6209704;28;80951;-70
2023/06/23 06:13:52;;;;;;;8.50;7.60;;;26.30;93.10;;;;;;6203394;28;81726;-70
2023/06/23 06:20:59;;;;;;;7.20;6.57;;;26.30;93.10;;;;;;6215805;28;80924;-71
2023/06/23 06:24:33;;;;;;;7.32;6.63;;;26.20;93.00;;;;;;6211122;28;81229;-70
2023/06/23 06:38:10;;;;;;;7.60;6.80;;;26.30;93.10;;;;;;6186185;28;80696;-69
2023/06/23 06:41:38;;;;;;;7.50;6.80;;;26.30;93.10;;;;;;6199853;28;81756;-69
2023/06/23 06:48:45;;;;;;;7.32;6.63;;;26.30;93.20;;;;;;6215035;27;82218;-70
2023/06/23 07:02:40;;;;;;;7.32;6.57;;;26.30;93.20;;;;;;6162245;28;81578;-69
2023/06/23 07:06:03;;;;;;;7.30;6.60;;;26.30;93.20;;;;;;6168124;28;81480;-70
2023/06/23 07:09:23;;;;;;;6.88;6.18;;;26.30;93.20;;;;;;6131447;28;81405;-70
2023/06/23 07:12:48;;;;;;;7.18;6.53;;;26.30;93.20;;;;;;6135336;28;80360;-69
2023/06/23 07:16:09;;;;;;;7.22;6.57;;;26.30;93.20;;;;;;6145713;28;81743;-69
2023/06/23 07:23:04;;;;;;;7.25;6.55;;;26.30;93.20;;;;;;6147478;28;80909;-70
2023/06/23 07:27:11;;;;;;;7.15;6.55;;;26.30;93.20;;;;;;6142671;28;81210;-69
2023/06/23 07:33:49;;;;;;;6.97;6.38;;;26.30;93.30;;;;;;6088961;28;81181;-70
2023/06/23 07:40:49;;;;;;;7.10;6.40;;;26.30;93.30;;;;;;5979596;29;82216;-69
2023/06/23 07:44:21;;;;;;;6.60;6.00;;;26.30;93.20;;;;;;5980487;29;82296;-69
2023/06/23 07:54:51;;;;;;;6.85;6.15;;;26.30;93.20;;;;;;6062055;28;81606;-70
2023/06/23 07:58:18;;;;;;;6.47;5.88;;;26.30;93.20;;;;;;6062734;28;81294;-69
2023/06/23 08:01:35;;;;;;;6.28;5.70;;;26.30;93.20;;;;;;6090623;28;81118;-70
2023/06/23 08:04:45;;;;;;;7.03;6.43;;;26.30;93.20;;;;;;6110526;28;81483;-70
2023/06/23 08:08:01;;;;;;;6.80;6.13;;;26.30;93.20;;;;;;6123111;28;81114;-69
2023/06/23 08:18:37;;;;;;;6.80;6.20;;;26.30;93.20;;;;;;6122226;28;80710;-70
2023/06/23 08:22:04;;;;;;;6.88;6.18;;;26.30;93.20;;;;;;6073226;28;81336;-70
2023/06/23 08:25:22;;;;;;;6.97;6.28;;;26.30;93.20;;;;;;6161808;28;80606;-70
2023/06/23 08:28:59;;;;;;;6.57;5.97;;;26.30;93.20;;;;;;6199130;28;80340;-69
2023/06/23 08:32:16;;;;;;;6.30;5.70;;;26.30;93.20;;;;;;6200536;28;81392;-70
2023/06/23 08:35:43;;;;;;;6.38;5.78;;;26.30;93.20;;;;;;6202253;28;81928;-70
2023/06/23 08:39:00;;;;;;;6.45;5.80;;;26.30;93.20;;;;;;6115162;28;81860;-70
2023/06/23 08:42:29;;;;;;;6.35;5.75;;;26.30;93.10;;;;;;6120312;28;81276;-70
2023/06/23 08:45:46;;;;;;;5.82;5.32;;;26.30;93.10;;;;;;6122861;28;81309;-69
2023/06/23 08:49:01;;;;;;;6.15;5.65;;;26.30;93.10;;;;;;6122188;28;80395;-69
2023/06/23 08:56:04;;;;;;;6.18;5.68;;;26.30;93.20;;;;;;6122413;28;80928;-69
2023/06/23 08:59:24;;;;;;;6.10;5.53;;;26.30;93.10;;;;;;6070695;28;80535;-69
2023/06/23 09:02:46;;;;;;;6.82;6.13;;;26.30;93.20;;;;;;6118012;28;81329;-70
2023/06/23 09:06:15;;;;;;;6.30;5.70;;;26.30;93.20;;;;;;6125032;28;81067;-70
2023/06/23 09:09:29;;;;;;;6.10;5.60;;;26.30;93.10;;;;;;6114232;28;81391;-70
2023/06/23 09:20:17;;;;;;;6.05;5.55;;;26.30;93.10;;;;;;6201117;28;80910;-70
2023/06/23 09:23:39;;;;;;;5.68;5.18;;;26.30;93.10;;;;;;6212563;28;80459;-70
2023/06/23 09:27:11;;;;;;;5.88;5.38;;;26.30;93.10;;;;;;6219844;28;81268;-70
2023/06/23 09:33:56;;;;;;;5.63;5.13;;;26.30;93.00;;;;;;6212919;28;81237;-70
2023/06/23 09:44:59;;;;;;;5.25;4.75;;;26.30;93.00;;;;;;6205565;28;80696;-70
2023/06/23 09:51:42;;;;;;;5.40;4.90;;;26.30;93.00;;;;;;6217811;28;81240;-70
2023/06/23 10:06:04;;;;;;;5.50;5.00;;;26.30;93.00;;;;;;6212788;28;81162;-69
2023/06/23 10:09:19;;;;;;;4.90;4.50;;;26.30;93.00;;;;;;6208773;28;80920;-70
2023/06/23 10:12:31;;;;;;;5.00;4.60;;;26.30;93.00;;;;;;6186243;28;80959;-70
2023/06/23 10:23:03;;;;;;;4.97;4.53;;;26.30;92.90;;;;;;6191034;28;81454;-69
2023/06/23 10:26:29;;;;;;;4.60;4.20;;;26.30;92.90;;;;;;6211923;28;81972;-69
2023/06/23 10:37:29;;;;;;;4.70;4.30;;;26.30;92.90;;;;;;6201151;28;83102;-69
2023/06/23 10:40:56;;;;;;;4.65;4.15;;;26.30;92.90;;;;;;6204586;28;82893;-69
2023/06/23 10:44:00;;;;;;;4.63;4.22;;;26.30;92.90;;;;;;6203350;28;83346;-69
2023/06/23 10:47:02;;;;;;;5.20;4.70;;;26.30;93.00;;;;;;6216643;28;82900;-69
2023/06/23 10:50:05;;;;;;;4.82;4.43;;;26.40;93.00;;;;;;6209288;28;84085;-70
2023/06/23 10:53:15;;;;;;;4.60;4.20;;;26.30;93.00;;;;;;6229374;28;84039;-69
2023/06/23 10:56:31;;;;;;;4.63;4.22;;;26.30;92.90;;;;;;6208293;28;83939;-70
2023/06/23 10:59:33;;;;;;;4.47;4.07;;;26.30;92.90;;;;;;6207272;28;84486;-70
2023/06/23 11:02:53;;;;;;;4.53;4.13;;;26.30;92.90;;;;;;6211000;28;83314;-70
2023/06/23 11:05:56;;;;;;;4.55;4.15;;;26.30;92.90;;;;;;6219162;28;83941;-69
2023/06/23 11:08:59;;;;;;;4.50;4.10;;;26.30;92.90;;;;;;6215181;28;82004;-70
2023/06/23 11:12:02;;;;;;;4.80;4.30;;;26.30;92.90;;;;;;6198334;28;84926;-70
2023/06/23 11:15:11;;;;;;;4.38;3.97;;;26.30;92.90;;;;;;6219488;28;84003;-69
2023/06/23 11:18:14;;;;;;;4.20;3.80;;;26.30;92.90;;;;;;6219331;28;82756;-70
2023/06/23 11:21:18;;;;;;;4.50;4.10;;;26.30;92.80;;;;;;6210760;28;84195;-71
2023/06/23 11:24:22;;;;;;;4.40;4.05;;;26.30;92.80;;;;;;6198868;28;84106;-70
2023/06/23 11:27:24;;;;;;;4.18;3.80;;;26.30;92.80;;;;;;6222985;28;82916;-70
2023/06/23 11:30:26;;;;;;;4.35;3.95;;;26.30;92.80;;;;;;6209120;28;83999;-69
2023/06/23 11:33:29;;;;;;;5.57;4.70;;;26.30;92.80;;;;;;6207768;28;83350;-70
2023/06/23 11:36:32;;;;;;;4.35;3.97;;;26.30;92.80;;;;;;6205717;28;84399;-70
2023/06/23 11:39:36;;;;;;;4.30;3.90;;;26.30;92.90;;;;;;6190862;28;84120;-70
2023/06/23 11:42:46;;;;;;;4.05;3.67;;;26.30;92.80;;;;;;6199249;28;84954;-70
2023/06/23 11:45:52;;;;;;;4.28;3.88;;;26.30;92.80;;;;;;6189708;28;83958;-70
2023/06/23 11:48:54;;;;;;;4.38;3.97;;;26.30;92.80;;;;;;6199055;28;84041;-70
2023/06/23 11:52:02;;;;;;;4.40;4.00;;;26.30;92.80;;;;;;6200913;28;83988;-70
2023/06/23 11:55:06;;;;;;;4.80;4.30;;;26.30;92.30;;;;;;6187071;28;83934;-70
2023/06/23 11:58:09;;;;;;;4.75;4.35;;;26.30;91.10;;;;;;6187850;28;82816;-71
2023/06/23 12:01:11;;;;;;;4.47;4.07;;;26.30;90.20;;;;;;6200265;28;84007;-69
2023/06/23 12:04:13;;;;;;;5.03;4.55;;;26.30;89.40;;;;;;6210090;28;82078;-71
2023/06/23 12:07:15;;;;;;;4.65;4.25;;;26.20;88.30;;;;;;6206323;28;84003;-71
2023/06/23 12:10:18;;;;;;;5.43;4.50;;;26.20;87.80;;;;;;6211845;28;83963;-72
2023/06/23 12:13:21;;;;;;;6.65;4.95;;;26.20;87.20;;;;;;6211970;28;84991;-70
2023/06/23 12:16:23;;;;;;;5.18;4.68;;;26.20;86.50;;;;;;6206120;28;82947;-70
2023/06/23 12:19:25;;;;;;;5.57;4.65;;;26.20;86.10;;;;;;6216059;28;83062;-71
2023/06/23 12:22:36;;;;;;;5.63;4.93;;;26.20;85.30;;;;;;6219563;28;82937;-71
2023/06/23 12:25:43;;;;;;;5.32;4.82;;;26.20;85.50;;;;;;6209622;28;82900;-71
2023/06/23 12:28:45;;;;;;;5.63;5.10;;;26.20;86.00;;;;;;6196884;28;84012;-70
2023/06/23 12:31:54;;;;;;;7.07;5.18;;;26.20;86.60;;;;;;6195256;28;84135;-69
2023/06/23 12:34:57;;;;;;;6.10;5.50;;;26.30;87.60;;;;;;6206628;28;83363;-72
2023/06/23 12:37:59;;;;;;;5.72;5.20;;;26.30;88.30;;;;;;6203821;28;82931;-72
2023/06/23 12:41:19;;;;;;;5.63;5.13;;;26.30;86.30;;;;;;6218644;28;82874;-71
2023/06/23 12:44:22;;;;;;;5.90;5.25;;;26.30;86.00;;;;;;6193041;28;84901;-71
2023/06/23 12:47:26;;;;;;;5.68;5.18;;;26.30;85.40;;;;;;6202412;28;84006;-71
2023/06/23 12:50:28;;;;;;;5.75;5.18;;;26.30;85.20;;;;;;6214232;28;84375;-73
2023/06/23 12:53:30;;;;;;;5.72;5.10;;;26.30;84.70;;;;;;6205878;28;83988;-72
2023/06/23 12:56:33;;;;;;;10.43;5.35;;;26.30;83.70;;;;;;6203616;28;82957;-72
2023/06/23 12:59:36;;;;;;;6.95;5.50;;;26.30;83.50;;;;;;6223941;28;84367;-71
2023/06/23 13:02:38;;;;;;;7.07;5.25;;;26.30;82.70;;;;;;6208406;28;83944;-71
2023/06/23 13:05:40;;;;;;;7.15;5.40;;;26.30;82.20;;;;;;6212756;28;83272;-72
2023/06/23 13:08:42;;;;;;;5.85;4.93;;;26.30;82.20;;;;;;6209958;28;84081;-72
2023/06/23 13:11:45;;;;;;;5.47;4.97;;;26.30;82.50;;;;;;6213576;28;83871;-72
2023/06/23 13:14:47;;;;;;;7.05;5.28;;;26.30;82.70;;;;;;6231387;28;85079;-72
2023/06/23 13:17:49;;;;;;;6.47;5.07;;;26.30;82.70;;;;;;6209704;28;82916;-71
2023/06/23 13:20:51;;;;;;;5.22;4.80;;;26.30;82.80;;;;;;6219691;28;84430;-72
2023/06/23 13:23:53;;;;;;;6.40;5.55;;;26.30;82.80;;;;;;6208762;28;84267;-72
2023/06/23 13:26:57;;;;;;;5.70;4.95;;;26.30;82.70;;;;;;6206301;28;84086;-72
2023/06/23 13:29:59;;;;;;;5.75;5.20;;;26.30;82.60;;;;;;6191701;28;83936;-72
2023/06/23 13:33:01;;;;;;;5.97;5.38;;;26.30;82.50;;;;;;6212743;28;84036;-72
2023/06/23 13:36:03;;;;;;;6.13;5.63;;;26.30;82.50;;;;;;6201337;28;82286;-72
2023/06/23 13:39:05;;;;;;;5.95;5.38;;;26.30;82.30;;;;;;6201578;28;84122;-72
2023/06/23 13:42:09;;;;;;;5.63;5.13;;;26.20;82.60;;;;;;6206013;28;84017;-72
2023/06/23 13:45:12;;;;;;;6.07;5.47;;;26.20;82.40;;;;;;6212290;28;85425;-72
2023/06/23 13:48:15;;;;;;;5.32;4.82;;;26.20;82.60;;;;;;6207882;28;84784;-72
2023/06/23 13:51:17;;;;;;;6.78;5.90;;;26.20;83.40;;;;;;6199804;28;83687;-72
2023/06/23 13:54:20;;;;;;;5.93;5.35;;;26.20;82.60;;;;;;6202236;28;84123;-72
2023/06/23 13:57:23;;;;;;;6.03;5.45;;;26.20;82.80;;;;;;6212046;28;84095;-73
2023/06/23 14:00:26;;;;;;;5.40;4.88;;;26.20;82.80;;;;;;6224285;28;83989;-72
2023/06/23 14:03:28;;;;;;;6.35;5.38;;;26.20;81.40;;;;;;6232179;28;84252;-73
2023/06/23 14:06:30;;;;;;;7.97;5.80;;;26.20;80.50;;;;;;6209452;28;83306;-73
2023/06/23 14:09:32;;;;;;;5.90;5.40;;;26.20;80.40;;;;;;6210277;28;83984;-73
2023/06/23 14:12:35;;;;;;;7.18;5.10;;;26.20;80.50;;;;;;6205258;28;85401;-72
2023/06/23 14:15:37;;;;;;;7.22;5.38;;;26.20;80.10;;;;;;6210446;28;83902;-72
2023/06/23 14:18:39;;;;;;;6.72;5.72;;;26.20;80.00;;;;;;6220943;28;82941;-72
2023/06/23 14:21:42;;;;;;;6.25;5.70;;;26.20;79.60;;;;;;6202506;28;82918;-73
2023/06/23 14:24:44;;;;;;;6.20;5.60;;;26.20;79.30;;;;;;6202089;28;84004;-70
2023/06/23 14:27:48;;;;;;;7.72;5.80;;;26.20;79.70;;;;;;6211498;28;83964;-72
2023/06/23 14:30:50;;;;;;;6.13;5.60;;;26.20;80.10;;;;;;6199353;28;84085;-72
2023/06/23 14:33:53;;;;;;;6.55;5.72;;;26.20;80.40;;;;;;6208460;28;85964;-71
2023/06/23 14:36:54;;;;;;;6.65;5.97;;;26.20;80.70;;;;;;6208554;28;82268;-71
2023/06/23 14:39:56;;;;;;;6.80;6.20;;;26.20;81.20;;;;;;6196012;28;84082;-72
2023/06/23 14:43:00;;;;;;;8.63;6.43;;;26.20;81.90;;;;;;6205135;28;83553;-72
2023/06/23 14:46:02;;;;;;;8.07;6.30;;;26.20;84.20;;;;;;6196170;28;84148;-72
2023/06/23 14:49:04;;;;;;;7.80;6.03;;;26.30;83.30;;;;;;6208668;28;84019;-71
2023/06/23 14:52:06;;;;;;;6.70;6.07;;;26.30;82.90;;;;;;6210175;28;84118;-72
2023/06/23 14:55:09;;;;;;;8.48;5.93;;;26.30;82.50;;;;;;6207886;28;84707;-71
2023/06/23 14:58:12;;;;;;;7.70;6.90;;;26.30;82.40;;;;;;6207748;28;84015;-71
2023/06/23 15:01:14;;;;;;;7.32;6.30;;;26.30;82.60;;;;;;6206407;28;84342;-72
2023/06/23 15:04:16;;;;;;;6.55;5.90;;;26.40;83.20;;;;;;6199884;28;84017;-73
2023/06/23 15:07:19;;;;;;;6.97;6.10;;;26.70;82.70;;;;;;6201089;28;83377;-72
2023/06/23 15:10:21;;;;;;;7.45;6.07;;;26.70;82.00;;;;;;6207214;28;84026;-72
2023/06/23 15:13:24;;;;;;;8.60;6.57;;;26.80;81.90;;;;;;6205181;28;84001;-72
2023/06/23 15:16:26;;;;;;;7.35;5.97;;;26.80;81.90;;;;;;6196986;28;85297;-72
2023/06/23 15:19:28;;;;;;;5.93;5.32;;;26.70;81.50;;;;;;6205924;28;84022;-73
2023/06/23 15:22:30;;;;;;;7.13;5.95;;;26.70;81.30;;;;;;6203133;28;84077;-73
2023/06/23 15:25:33;;;;;;;6.47;5.60;;;26.60;80.30;;;;;;6206878;28;84087;-71
2023/06/23 15:28:36;;;;;;;6.45;5.28;;;26.60;79.00;;;;;;6214658;28;84421;-72
2023/06/23 15:31:38;;;;;;;6.00;5.40;;;26.50;78.30;;;;;;6217635;28;84292;-72
2023/06/23 15:34:40;;;;;;;6.03;5.43;;;26.50;78.10;;;;;;6205151;28;84319;-71
2023/06/23 15:37:42;;;;;;;6.40;5.53;;;26.40;78.00;;;;;;6212314;28;83227;-72
2023/06/23 15:40:44;;;;;;;5.95;5.45;;;26.40;78.10;;;;;;6219200;28;84499;-72
2023/06/23 15:43:48;;;;;;;5.75;5.22;;;26.40;78.40;;;;;;6219729;28;84034;-72
2023/06/23 15:46:50;;;;;;;6.38;5.78;;;26.40;78.90;;;;;;6204872;28;85010;-72
2023/06/23 15:49:52;;;;;;;6.28;5.68;;;26.30;79.20;;;;;;6205735;28;83781;-71
2023/06/23 15:52:54;;;;;;;6.38;5.70;;;26.30;79.10;;;;;;6215140;28;84020;-70
2023/06/23 15:55:56;;;;;;;7.07;5.90;;;26.30;79.10;;;;;;6205401;28;84108;-70
2023/06/23 15:58:59;;;;;;;7.13;6.00;;;26.30;79.10;;;;;;6202069;28;82966;-70
2023/06/23 16:02:01;;;;;;;6.30;5.70;;;26.20;79.00;;;;;;6198317;28;84181;-70
2023/06/23 16:05:04;;;;;;;6.47;5.75;;;26.20;79.10;;;;;;6188172;28;85006;-71
2023/06/23 16:08:06;;;;;;;7.47;5.40;;;26.20;79.20;;;;;;6207371;28;83340;-72
2023/06/23 16:11:08;;;;;;;8.13;5.68;;;26.20;79.30;;;;;;6208731;28;83822;-72
2023/06/23 16:14:12;;;;;;;5.80;5.15;;;26.20;80.00;;;;;;6207728;28;84200;-72
2023/06/23 16:17:14;;;;;;;5.90;5.40;;;26.20;79.20;;;;;;6204306;28;84987;-69
2023/06/23 16:20:16;;;;;;;7.97;5.68;;;26.20;79.50;;;;;;6204623;28;82924;-71
2023/06/23 16:23:18;;;;;;;7.88;5.90;;;26.20;80.10;;;;;;6205963;28;83110;-70
2023/06/23 16:26:20;;;;;;;7.78;5.82;;;26.20;80.70;;;;;;6206853;28;82979;-70
2023/06/23 16:29:23;;;;;;;6.38;5.78;;;26.20;80.70;;;;;;6196429;28;84280;-71
2023/06/23 16:32:26;;;;;;;7.53;5.47;;;26.20;80.70;;;;;;6201802;28;84028;-70
2023/06/23 16:35:28;;;;;;;6.63;5.20;;;26.10;80.30;;;;;;6199658;28;82822;-71
2023/06/23 16:38:32;;;;;;;5.63;5.13;;;26.20;80.50;;;;;;6202302;28;83278;-70
2023/06/23 16:41:34;;;;;;;5.63;5.13;;;26.20;80.10;;;;;;6206231;28;84082;-69
2023/06/23 16:44:37;;;;;;;6.40;5.45;;;26.20;80.00;;;;;;6198683;28;83939;-69
2023/06/23 16:47:44;;;;;;;5.97;5.20;;;26.10;79.90;;;;;;6214122;28;85273;-69
2023/06/23 16:50:46;;;;;;;5.80;5.30;;;26.10;80.00;;;;;;6202199;28;83990;-70
2023/06/23 16:53:49;;;;;;;5.30;4.80;;;26.10;80.20;;;;;;6216865;28;82974;-70
2023/06/23 16:56:52;;;;;;;6.25;5.32;;;26.10;80.50;;;;;;6204257;28;83991;-70
2023/06/23 16:59:56;;;;;;;6.43;5.55;;;26.10;81.10;;;;;;6205059;28;83969;-69
2023/06/23 17:02:59;;;;;;;5.85;5.25;;;26.10;81.40;;;;;;6208479;28;82962;-69
2023/06/23 17:06:01;;;;;;;6.10;5.50;;;26.10;81.60;;;;;;6209783;28;83050;-69
2023/06/23 17:09:04;;;;;;;5.75;5.18;;;26.10;81.70;;;;;;6213353;28;82252;-69
2023/06/23 17:12:08;;;;;;;6.25;5.65;;;26.10;82.20;;;;;;6206948;28;83681;-70
2023/06/23 17:15:11;;;;;;;5.90;5.30;;;26.10;82.30;;;;;;6195933;28;85402;-71
2023/06/23 17:18:14;;;;;;;6.10;5.38;;;26.10;82.60;;;;;;6194240;28;84234;-70
2023/06/23 17:21:16;;;;;;;7.13;6.00;;;26.00;83.20;;;;;;6204321;28;84101;-70
2023/06/23 17:24:18;;;;;;;8.32;5.75;;;26.00;83.90;;;;;;6218741;28;84086;-70
2023/06/23 17:27:20;;;;;;;6.35;5.72;;;26.00;83.70;;;;;;6204042;28;84262;-69
2023/06/23 17:30:25;;;;;;;5.93;5.30;;;26.00;83.50;;;;;;6205812;28;83952;-69
2023/06/23 17:33:27;;;;;;;5.88;5.28;;;26.00;83.20;;;;;;6209754;28;82909;-70
2023/06/23 17:36:29;;;;;;;6.05;5.20;;;26.10;83.10;;;;;;6218695;28;84025;-69
2023/06/23 17:39:31;;;;;;;5.20;4.70;;;26.00;82.70;;;;;;6208804;28;83244;-70
2023/06/23 17:42:33;;;;;;;5.82;5.22;;;26.00;81.90;;;;;;6215713;28;84127;-70
2023/06/23 17:45:36;;;;;;;6.55;4.90;;;26.00;81.70;;;;;;6224530;28;84365;-71
2023/06/23 17:48:39;;;;;;;5.63;4.65;;;26.00;81.10;;;;;;6209286;28;84935;-70
2023/06/23 17:51:41;;;;;;;6.75;5.32;;;26.00;80.90;;;;;;6213165;28;84153;-70
2023/06/23 17:54:43;;;;;;;5.72;5.10;;;26.00;81.30;;;;;;6206534;28;84082;-69
2023/06/23 17:57:44;;;;;;;5.43;4.90;;;26.00;81.30;;;;;;6216003;28;84141;-69
2023/06/23 18:00:48;;;;;;;7.00;4.68;;;25.90;80.90;;;;;;6212422;28;84543;-69
2023/06/23 18:03:50;;;;;;;5.00;4.50;;;25.90;80.70;;;;;;6215894;28;84404;-69
2023/06/23 18:06:52;;;;;;;6.18;4.45;;;25.90;80.50;;;;;;6208376;28;84046;-69
2023/06/23 18:09:54;;;;;;;6.00;4.20;;;25.90;80.00;;;;;;6224516;28;83282;-69
2023/06/23 18:12:56;;;;;;;6.93;4.60;;;25.90;79.80;;;;;;6214424;28;85466;-69
2023/06/23 18:16:00;;;;;;;5.57;4.32;;;25.90;79.90;;;;;;6213212;28;84073;-69
2023/06/23 18:19:02;;;;;;;6.68;4.47;;;25.80;80.30;;;;;;6214500;28;84959;-69
2023/06/23 18:22:04;;;;;;;7.00;4.68;;;25.90;79.70;;;;;;6199182;28;84060;-69
2023/06/23 18:25:07;;;;;;;5.78;4.70;;;25.90;79.80;;;;;;6209325;28;84015;-69
2023/06/23 18:28:10;;;;;;;5.50;4.50;;;25.80;80.50;;;;;;6209455;28;84000;-69
2023/06/23 18:31:13;;;;;;;10.07;5.10;;;25.90;80.80;;;;;;6214024;28;83985;-68
2023/06/23 18:34:16;;;;;;;8.25;4.82;;;25.90;81.90;;;;;;6207308;28;84016;-70
2023/06/23 18:37:18;;;;;;;6.15;4.30;;;25.90;82.40;;;;;;6213206;28;84105;-69
2023/06/23 18:40:20;;;;;;;5.88;4.40;;;25.80;81.60;;;;;;6202386;28;82477;-69
2023/06/23 18:43:22;;;;;;;4.63;4.22;;;25.80;82.00;;;;;;6215848;28;82507;-69
2023/06/23 18:46:25;;;;;;;5.57;4.15;;;25.80;81.80;;;;;;6196825;28;84083;-69
2023/06/23 18:49:28;;;;;;;6.50;4.07;;;25.80;81.80;;;;;;6201250;28;85310;-70
2023/06/23 18:52:30;;;;;;;6.75;4.72;;;25.80;82.00;;;;;;6213808;28;83320;-69
2023/06/23 18:55:32;;;;;;;6.97;4.70;;;25.80;82.00;;;;;;6214674;28;83189;-69
2023/06/23 18:58:35;;;;;;;4.72;3.83;;;25.80;82.50;;;;;;6223213;28;84128;-69
2023/06/23 19:01:38;;;;;;;5.63;4.05;;;25.80;82.20;;;;;;6202272;28;82041;-69
2023/06/23 19:04:41;;;;;;;5.32;3.95;;;25.80;82.40;;;;;;6206455;28;84412;-69
2023/06/23 19:07:43;;;;;;;5.22;3.95;;;25.80;81.50;;;;;;6208790;28;84362;-69
2023/06/23 19:10:45;;;;;;;4.13;3.70;;;25.80;81.50;;;;;;6222578;28;83254;-69
2023/06/23 19:13:47;;;;;;;5.25;3.60;;;25.80;81.60;;;;;;6224911;28;83779;-68
2023/06/23 19:16:50;;;;;;;4.85;3.70;;;25.80;81.30;;;;;;6218183;28;82895;-68
2023/06/23 19:19:52;;;;;;;4.25;3.53;;;25.80;81.90;;;;;;6217338;28;85349;-69
2023/06/23 19:22:54;;;;;;;4.18;3.53;;;25.80;81.60;;;;;;6208111;28;84027;-69
2023/06/23 19:25:56;;;;;;;3.15;2.85;;;25.80;81.80;;;;;;6219887;28;85132;-69
2023/06/23 19:28:58;;;;;;;3.75;3.35;;;25.80;81.70;;;;;;6221400;28;83248;-69